createdAt,value
2018-09-17T00:00:25.658Z,13.13
2018-09-17T00:02:54.126Z,13.33
2018-09-17T00:05:22.574Z,12.90
2018-09-17T00:07:51.107Z,14.47
2018-09-17T00:10:19.469Z,14.13
2018-09-17T00:12:47.859Z,14.87
2018-09-17T00:15:16.378Z,13.80
2018-09-17T00:17:44.802Z,13.90
2018-09-17T00:20:13.269Z,12.80
2018-09-17T00:22:41.650Z,16.03
2018-09-17T00:25:10.174Z,14.60
2018-09-17T00:27:38.622Z,13.50
2018-09-17T00:30:07.037Z,14.20
2018-09-17T00:32:35.551Z,13.57
2018-09-17T00:35:03.955Z,14.33
2018-09-17T00:37:32.538Z,14.30
2018-09-17T00:40:01.025Z,14.80
2018-09-17T00:42:29.523Z,14.03
2018-09-17T00:44:57.919Z,14.73
2018-09-17T00:47:26.384Z,15.40
2018-09-17T00:49:54.926Z,13.27
2018-09-17T00:52:23.423Z,15.70
2018-09-17T00:54:51.913Z,16.37
2018-09-17T00:57:20.410Z,15.80
2018-09-17T00:59:48.813Z,14.83
2018-09-17T01:02:17.177Z,16.47
2018-09-17T01:04:45.734Z,14.27
2018-09-17T01:07:14.257Z,15.40
2018-09-17T01:09:43.721Z,15.63
2018-09-17T01:12:13.749Z,15.70
2018-09-17T01:14:42.251Z,14.20
2018-09-17T01:17:10.650Z,14.60
2018-09-17T01:19:39.097Z,15.57
2018-09-17T01:22:07.470Z,15.10
2018-09-17T01:24:35.962Z,15.07
2018-09-17T01:27:04.435Z,15.67
2018-09-17T01:29:32.886Z,14.43
2018-09-17T01:32:01.363Z,14.13
2018-09-17T01:34:29.850Z,16.27
2018-09-17T01:36:58.294Z,15.13
2018-09-17T01:39:26.725Z,16.27
2018-09-17T01:41:55.207Z,16.20
2018-09-17T01:44:23.660Z,14.80
2018-09-17T01:46:52.090Z,15.53
2018-09-17T01:49:20.521Z,15.27
2018-09-17T01:51:48.896Z,14.70
2018-09-17T01:54:17.328Z,15.13
2018-09-17T01:56:45.686Z,15.87
2018-09-17T01:59:14.057Z,15.87
2018-09-17T02:01:42.574Z,15.97
2018-09-17T02:04:11.025Z,16.23
2018-09-17T02:06:39.467Z,15.53
2018-09-17T02:09:08.417Z,16.83
2018-09-17T02:11:37.014Z,16.20
2018-09-17T02:14:05.671Z,18.07
2018-09-17T02:16:34.067Z,15.63
2018-09-17T02:19:02.575Z,18.30
2018-09-17T02:21:31.014Z,16.40
2018-09-17T02:23:59.374Z,15.80
2018-09-17T02:26:27.815Z,15.77
2018-09-17T02:28:56.265Z,16.70
2018-09-17T02:31:24.703Z,17.03
2018-09-17T02:33:53.071Z,15.23
2018-09-17T02:36:21.490Z,15.53
2018-09-17T02:38:50.008Z,15.30
2018-09-17T02:41:18.481Z,16.93
2018-09-17T02:43:47.396Z,14.47
2018-09-17T02:46:15.842Z,16.47
2018-09-17T02:48:44.348Z,16.40
2018-09-17T02:51:12.828Z,16.07
2018-09-17T02:53:41.425Z,16.13
2018-09-17T02:56:09.731Z,17.60
2018-09-17T02:58:38.181Z,17.30
2018-09-17T03:01:06.647Z,16.30
2018-09-17T03:03:35.218Z,17.63
2018-09-17T03:06:03.711Z,17.53
2018-09-17T03:08:32.111Z,15.77
2018-09-17T03:11:00.671Z,16.10
2018-09-17T03:13:29.952Z,16.90
2018-09-17T03:15:58.418Z,17.00
2018-09-17T03:18:38.862Z,15.90
2018-09-17T03:21:07.789Z,16.60
2018-09-17T03:23:37.227Z,15.80
2018-09-17T03:26:05.890Z,17.70
2018-09-17T03:28:34.506Z,17.13
2018-09-17T03:31:03.012Z,17.17
2018-09-17T03:33:31.440Z,17.60
2018-09-17T03:35:59.913Z,16.60
2018-09-17T03:38:36.823Z,17.30
2018-09-17T03:41:06.405Z,16.43
2018-09-17T03:43:35.785Z,16.90
2018-09-17T03:46:04.314Z,16.27
2018-09-17T03:48:34.260Z,16.47
2018-09-17T03:51:03.395Z,18.10
2018-09-17T03:53:32.089Z,17.27
2018-09-17T03:56:00.669Z,17.20
2018-09-17T03:58:29.749Z,15.93
2018-09-17T04:00:58.753Z,17.77
2018-09-17T04:03:27.215Z,18.03
2018-09-17T04:05:55.656Z,17.07
2018-09-17T04:08:24.079Z,18.77
2018-09-17T04:10:52.588Z,17.67
2018-09-17T04:13:21.030Z,16.83
2018-09-17T04:15:49.442Z,16.70
2018-09-17T04:18:17.872Z,17.20
2018-09-17T04:20:46.303Z,15.53
2018-09-17T04:23:18.874Z,15.80
2018-09-17T04:25:47.438Z,16.20
2018-09-17T04:28:16.021Z,16.10
2018-09-17T04:30:44.597Z,17.03
2018-09-17T04:33:13.084Z,16.73
2018-09-17T04:35:41.595Z,16.33
2018-09-17T04:38:09.975Z,16.70
2018-09-17T04:40:38.342Z,16.27
2018-09-17T04:43:06.814Z,17.00
2018-09-17T04:45:35.319Z,16.00
2018-09-17T04:48:03.723Z,15.17
2018-09-17T04:50:32.117Z,17.47
2018-09-17T04:53:00.615Z,16.93
2018-09-17T04:55:28.983Z,17.47
2018-09-17T04:57:57.386Z,15.80
2018-09-17T05:00:25.857Z,16.83
2018-09-17T05:02:54.270Z,17.10
2018-09-17T05:05:22.681Z,18.30
2018-09-17T05:07:51.057Z,15.37
2018-09-17T05:10:19.465Z,16.07
2018-09-17T05:12:47.947Z,15.53
2018-09-17T05:15:16.369Z,16.97
2018-09-17T05:17:44.874Z,17.07
2018-09-17T05:20:13.360Z,17.63
2018-09-17T05:22:41.872Z,14.83
2018-09-17T05:25:10.276Z,16.13
2018-09-17T05:27:38.869Z,13.43
2018-09-17T05:30:07.384Z,14.43
2018-09-17T05:32:35.778Z,15.00
2018-09-17T05:35:04.421Z,14.87
2018-09-17T05:37:32.873Z,17.77
2018-09-17T05:40:01.309Z,17.60
2018-09-17T05:42:29.829Z,16.87
2018-09-17T05:44:58.297Z,18.50
2018-09-17T05:47:26.844Z,17.30
2018-09-17T05:49:55.267Z,16.87
2018-09-17T05:52:23.720Z,17.87
2018-09-17T05:54:52.104Z,16.57
2018-09-17T05:57:20.578Z,17.40
2018-09-17T05:59:49.055Z,16.73
2018-09-17T06:02:17.525Z,17.30
2018-09-17T06:04:46.103Z,15.33
2018-09-17T06:07:14.461Z,14.60
2018-09-17T06:09:43.049Z,14.90
2018-09-17T06:12:11.493Z,16.67
2018-09-17T06:14:40.096Z,16.70
2018-09-17T06:17:08.565Z,20.30
2018-09-17T06:19:37.056Z,17.90
2018-09-17T06:22:05.589Z,17.67
2018-09-17T06:24:34.232Z,16.65
2018-09-17T06:27:02.794Z,18.05
2018-09-17T06:29:31.345Z,17.98
2018-09-17T06:31:59.844Z,17.65
2018-09-17T06:34:28.326Z,17.15
2018-09-17T06:39:25.179Z,16.27
2018-09-17T06:41:53.703Z,16.97
2018-09-17T06:44:22.217Z,16.67
2018-09-17T06:46:50.609Z,16.48
2018-09-17T06:49:18.988Z,16.53
2018-09-17T06:51:47.419Z,17.37
2018-09-17T06:54:15.948Z,16.50
2018-09-17T06:56:44.377Z,16.40
2018-09-17T06:59:12.786Z,16.15
2018-09-17T07:01:41.301Z,16.45
2018-09-17T07:04:09.690Z,16.25
2018-09-17T07:06:38.259Z,17.32
2018-09-17T07:09:08.870Z,16.42
2018-09-17T07:11:37.305Z,16.00
2018-09-17T07:14:05.954Z,15.95
2018-09-17T07:16:34.370Z,17.05
2018-09-17T07:19:02.722Z,16.17
2018-09-17T07:21:31.611Z,16.07
2018-09-17T07:24:00.006Z,15.98
2018-09-17T07:26:28.738Z,15.53
2018-09-17T07:28:57.425Z,15.95
2018-09-17T07:31:25.947Z,16.25
2018-09-17T07:33:54.348Z,16.35
2018-09-17T07:36:22.914Z,14.47
2018-09-17T07:38:51.286Z,15.40
2018-09-17T07:41:19.710Z,16.77
2018-09-17T07:43:48.282Z,15.90
2018-09-17T07:46:16.690Z,15.75
2018-09-17T07:48:45.082Z,15.83
2018-09-17T07:51:13.546Z,15.40
2018-09-17T07:53:42.126Z,14.47
2018-09-17T07:56:10.710Z,14.30
2018-09-17T07:58:39.101Z,14.45
2018-09-17T08:01:07.802Z,13.80
2018-09-17T08:03:36.232Z,14.30
2018-09-17T08:06:04.755Z,14.07
2018-09-17T08:08:33.466Z,12.82
2018-09-17T08:11:02.023Z,14.10
2018-09-17T08:13:30.442Z,12.82
2018-09-17T08:15:58.877Z,12.80
2018-09-17T08:18:27.262Z,12.17
2018-09-17T08:20:55.701Z,13.70
2018-09-17T08:23:24.280Z,13.57
2018-09-17T08:25:52.760Z,12.47
2018-09-17T08:28:21.148Z,11.17
2018-09-17T08:30:49.573Z,10.80
2018-09-17T08:33:17.947Z,12.73
2018-09-17T08:35:46.303Z,11.73
2018-09-17T08:38:14.745Z,12.03
2018-09-17T08:40:43.228Z,10.40
2018-09-17T08:43:11.662Z,10.50
2018-09-17T08:45:40.083Z,10.30
2018-09-17T08:48:08.712Z,11.63
2018-09-17T08:50:37.138Z,11.73
2018-09-17T08:53:06.017Z,10.30
2018-09-17T08:55:39.688Z,10.47
2018-09-17T08:58:13.550Z,9.63
2018-09-17T09:00:49.234Z,11.20
2018-09-17T09:03:23.189Z,10.67
2018-09-17T09:05:56.825Z,9.70
2018-09-17T09:08:25.515Z,10.40
2018-09-17T09:10:59.291Z,10.40
2018-09-17T09:13:33.151Z,9.90
2018-09-17T09:16:01.582Z,10.03
2018-09-17T09:18:30.042Z,9.43
2018-09-17T09:20:58.577Z,9.17
2018-09-17T09:23:26.965Z,9.33
2018-09-17T09:25:55.420Z,9.10
2018-09-17T09:28:23.808Z,7.53
2018-09-17T09:30:52.337Z,8.50
2018-09-17T09:33:20.726Z,8.70
2018-09-17T09:35:49.150Z,8.03
2018-09-17T09:38:17.584Z,8.73
2018-09-17T09:40:46.194Z,8.73
2018-09-17T09:43:14.542Z,8.80
2018-09-17T09:45:42.917Z,8.23
2018-09-17T09:48:11.406Z,8.50
2018-09-17T09:50:39.957Z,10.30
2018-09-17T09:53:08.369Z,8.43
2018-09-17T09:55:36.751Z,8.90
2018-09-17T09:58:05.391Z,7.33
2018-09-17T10:00:39.184Z,7.37
2018-09-17T10:03:13.342Z,7.50
2018-09-17T10:05:41.837Z,7.57
2018-09-17T10:08:10.436Z,8.17
2018-09-17T10:10:44.157Z,7.73
2018-09-17T10:13:18.011Z,7.50
2018-09-17T10:15:50.689Z,8.20
2018-09-17T10:18:24.645Z,9.30
2018-09-17T10:20:53.025Z,6.60
2018-09-17T10:23:21.422Z,7.17
2018-09-17T10:25:49.800Z,7.07
2018-09-17T10:28:18.313Z,7.93
2018-09-17T10:30:46.734Z,6.60
2018-09-17T10:33:15.198Z,7.47
2018-09-17T10:35:43.730Z,6.57
2018-09-17T10:38:12.178Z,6.60
2018-09-17T10:40:40.566Z,7.40
2018-09-17T10:43:08.986Z,7.30
2018-09-17T10:45:37.498Z,6.33
2018-09-17T10:48:05.966Z,7.30
2018-09-17T10:50:34.397Z,7.20
2018-09-17T10:53:02.931Z,8.10
2018-09-17T10:55:31.303Z,7.97
2018-09-17T10:57:59.701Z,6.00
2018-09-17T11:00:28.103Z,6.63
2018-09-17T11:02:56.583Z,6.10
2018-09-17T11:05:24.981Z,6.43
2018-09-17T11:07:53.375Z,6.87
2018-09-17T11:10:21.751Z,5.50
2018-09-17T11:12:50.298Z,4.80
2018-09-17T11:15:18.736Z,5.40
2018-09-17T11:17:47.129Z,5.63
2018-09-17T11:20:15.577Z,5.50
2018-09-17T11:22:43.954Z,5.60
2018-09-17T11:25:12.471Z,5.80
2018-09-17T11:27:41.031Z,5.47
2018-09-17T11:30:09.422Z,5.20
2018-09-17T11:32:37.838Z,4.67
2018-09-17T11:35:06.270Z,4.90
2018-09-17T11:37:34.637Z,4.20
2018-09-17T11:40:03.199Z,5.13
2018-09-17T11:42:31.587Z,5.43
2018-09-17T11:44:59.941Z,4.67
2018-09-17T11:47:28.438Z,5.23
2018-09-17T11:49:56.984Z,5.83
2018-09-17T11:52:25.513Z,4.90
2018-09-17T11:54:53.993Z,5.10
2018-09-17T11:57:22.509Z,4.70
2018-09-17T11:59:50.984Z,4.70
2018-09-17T12:02:24.696Z,4.40
2018-09-17T12:04:59.467Z,4.80
2018-09-17T12:07:33.211Z,5.70
2018-09-17T12:10:01.799Z,5.40
2018-09-17T12:12:30.414Z,5.53
2018-09-17T12:14:58.818Z,4.80
2018-09-17T12:17:27.216Z,4.63
2018-09-17T12:19:55.821Z,5.17
2018-09-17T12:22:24.190Z,4.80
2018-09-17T12:24:52.882Z,5.10
2018-09-17T12:27:21.332Z,5.07
2018-09-17T12:29:49.725Z,4.80
2018-09-17T12:32:18.188Z,5.63
2018-09-17T12:34:46.623Z,4.77
2018-09-17T12:37:15.408Z,4.57
2018-09-17T12:39:43.997Z,4.47
2018-09-17T12:42:12.402Z,3.87
2018-09-17T12:44:41.145Z,4.37
2018-09-17T12:47:09.648Z,4.57
2018-09-17T12:49:38.054Z,4.73
2018-09-17T12:52:06.793Z,3.80
2018-09-17T12:54:35.193Z,4.20
2018-09-17T12:57:03.733Z,3.93
2018-09-17T12:59:32.086Z,4.20
2018-09-17T13:02:00.493Z,4.30
2018-09-17T13:04:29.011Z,4.13
2018-09-17T13:06:57.663Z,4.67
2018-09-17T13:09:26.181Z,4.40
2018-09-17T13:11:54.543Z,4.27
2018-09-17T13:14:23.130Z,4.50
2018-09-17T13:16:51.547Z,4.40
2018-09-17T13:19:19.915Z,5.30
2018-09-17T13:21:48.275Z,4.43
2018-09-17T13:24:16.781Z,4.10
2018-09-17T13:26:45.211Z,4.13
2018-09-17T13:29:13.542Z,4.43
2018-09-17T13:31:42.079Z,4.30
2018-09-17T13:34:10.475Z,4.97
2018-09-17T13:36:42.026Z,4.50
2018-09-17T13:39:10.481Z,4.70
2018-09-17T13:41:38.882Z,4.77
2018-09-17T13:44:07.415Z,3.70
2018-09-17T13:46:35.820Z,4.97
2018-09-17T13:49:04.373Z,5.60
2018-09-17T13:51:32.798Z,4.33
2018-09-17T13:54:01.353Z,4.10
2018-09-17T13:56:29.849Z,4.30
2018-09-17T13:58:58.223Z,4.53
2018-09-17T14:01:26.663Z,4.57
2018-09-17T14:03:55.187Z,4.37
2018-09-17T14:06:23.622Z,4.50
2018-09-17T14:08:52.237Z,4.73
2018-09-17T14:11:20.719Z,4.37
2018-09-17T14:13:49.231Z,4.07
2018-09-17T14:16:21.875Z,4.20
2018-09-17T14:18:50.374Z,4.97
2018-09-17T14:21:18.801Z,4.30
2018-09-17T14:23:47.336Z,7.63
2018-09-17T14:26:15.701Z,4.67
2018-09-17T14:28:44.037Z,4.00
2018-09-17T14:31:12.530Z,4.17
2018-09-17T14:33:41.246Z,4.73
2018-09-17T14:36:09.765Z,3.90
2018-09-17T14:38:38.273Z,4.53
2018-09-17T14:41:06.734Z,3.73
2018-09-17T14:43:35.184Z,4.20
2018-09-17T14:46:03.536Z,4.10
2018-09-17T14:48:32.031Z,3.47
2018-09-17T14:51:00.519Z,4.13
2018-09-17T14:53:29.099Z,4.57
2018-09-17T14:55:57.486Z,4.67
2018-09-17T14:58:26.029Z,4.40
2018-09-17T15:00:54.332Z,4.10
2018-09-17T15:03:22.788Z,3.70
2018-09-17T15:05:51.245Z,3.33
2018-09-17T15:08:19.753Z,4.57
2018-09-17T15:10:48.276Z,4.93
2018-09-17T15:13:16.852Z,4.60
2018-09-17T15:15:51.431Z,4.53
2018-09-17T15:18:19.945Z,3.93
2018-09-17T15:20:48.459Z,4.37
2018-09-17T15:23:16.826Z,5.07
2018-09-17T15:25:45.509Z,4.30
2018-09-17T15:28:13.999Z,4.70
2018-09-17T15:30:42.379Z,4.20
2018-09-17T15:33:10.952Z,4.63
2018-09-17T15:35:39.394Z,3.87
2018-09-17T15:38:07.991Z,3.57
2018-09-17T15:40:36.528Z,4.23
2018-09-17T15:43:05.038Z,3.33
2018-09-17T15:45:33.503Z,3.67
2018-09-17T15:48:02.064Z,2.90
2018-09-17T15:50:30.542Z,4.70
2018-09-17T15:52:58.998Z,3.60
2018-09-17T15:55:27.612Z,4.13
2018-09-17T15:57:56.185Z,5.10
2018-09-17T16:00:24.592Z,4.80
2018-09-17T16:02:52.999Z,3.67
2018-09-17T16:05:21.539Z,4.50
2018-09-17T16:07:50.012Z,3.40
2018-09-17T16:10:18.504Z,3.50
2018-09-17T16:12:47.055Z,3.33
2018-09-17T16:15:15.485Z,4.27
2018-09-17T16:17:43.878Z,2.97
2018-09-17T16:20:12.478Z,4.80
2018-09-17T16:22:40.882Z,3.60
2018-09-17T16:25:09.419Z,4.60
2018-09-17T16:27:37.778Z,3.73
2018-09-17T16:30:08.027Z,4.03
2018-09-17T16:32:36.537Z,3.20
2018-09-17T16:35:05.062Z,4.20
2018-09-17T16:37:33.550Z,5.53
2018-09-17T16:40:02.066Z,4.30
2018-09-17T16:42:30.427Z,4.00
2018-09-17T16:44:58.931Z,5.13
2018-09-17T16:47:27.456Z,4.33
2018-09-17T16:49:55.907Z,5.97
2018-09-17T16:52:24.359Z,4.47
2018-09-17T16:54:52.822Z,3.60
2018-09-17T16:57:21.269Z,4.10
2018-09-17T16:59:50.142Z,4.40
2018-09-17T17:02:18.826Z,4.20
2018-09-17T17:04:47.288Z,6.90
2018-09-17T17:07:15.778Z,4.90
2018-09-17T17:09:44.303Z,5.83
2018-09-17T17:12:12.871Z,7.53
2018-09-17T17:14:41.288Z,5.57
2018-09-17T17:17:09.731Z,4.20
2018-09-17T17:19:38.272Z,4.67
2018-09-17T17:22:06.742Z,8.13
2018-09-17T17:24:35.500Z,4.40
2018-09-17T17:27:04.026Z,4.17
2018-09-17T17:29:32.567Z,6.07
2018-09-17T17:32:01.137Z,5.10
2018-09-17T17:34:29.804Z,3.97
2018-09-17T17:36:58.412Z,4.97
2018-09-17T17:39:28.573Z,4.30
2018-09-17T17:41:57.698Z,4.30
2018-09-17T17:44:27.581Z,4.40
2018-09-17T17:46:56.651Z,5.13
2018-09-17T17:49:25.883Z,4.63
2018-09-17T17:51:56.080Z,4.77
2018-09-17T17:54:25.196Z,4.97
2018-09-17T17:56:53.698Z,6.90
2018-09-17T17:59:22.343Z,5.37
2018-09-17T18:01:51.383Z,7.37
2018-09-17T18:04:20.045Z,5.30
2018-09-17T18:06:48.617Z,4.77
2018-09-17T18:09:17.107Z,5.53
2018-09-17T18:11:45.565Z,4.83
2018-09-17T18:14:14.077Z,5.87
2018-09-17T18:16:42.570Z,4.67
2018-09-17T18:19:11.060Z,5.20
2018-09-17T18:21:40.562Z,5.93
2018-09-17T18:24:08.961Z,4.77
2018-09-17T18:26:37.661Z,5.10
2018-09-17T18:29:06.221Z,5.87
2018-09-17T18:31:34.637Z,6.63
2018-09-17T18:34:03.031Z,5.60
2018-09-17T18:36:31.552Z,8.50
2018-09-17T18:39:00.219Z,60.83
2018-09-17T18:41:28.627Z,8.43
2018-09-17T18:43:57.194Z,15.87
2018-09-17T18:46:25.826Z,12.77
2018-09-17T18:48:54.235Z,9.03
2018-09-17T18:51:23.918Z,8.00
2018-09-17T18:53:53.285Z,8.60
2018-09-17T18:56:21.803Z,6.37
2018-09-17T18:58:50.417Z,8.13
2018-09-17T19:01:19.042Z,6.87
2018-09-17T19:03:47.598Z,6.70
2018-09-17T19:06:16.098Z,6.70
2018-09-17T19:08:44.781Z,13.70
2018-09-17T19:11:13.269Z,7.97
2018-09-17T19:13:41.913Z,6.43
2018-09-17T19:16:10.454Z,8.30
2018-09-17T19:18:38.893Z,6.10
2018-09-17T19:21:07.580Z,6.97
2018-09-17T19:23:41.137Z,7.17
2018-09-17T19:26:09.895Z,7.13
2018-09-17T19:28:43.606Z,8.03
2018-09-17T19:31:12.131Z,7.03
2018-09-17T19:33:40.609Z,7.00
2018-09-17T19:36:09.367Z,7.93
2018-09-17T19:38:43.246Z,6.80
2018-09-17T19:41:11.843Z,6.57
2018-09-17T19:43:40.456Z,7.10
2018-09-17T19:46:14.290Z,7.37
2018-09-17T19:48:42.706Z,6.77
2018-09-17T19:51:16.536Z,7.93
2018-09-17T19:53:45.000Z,7.00
2018-09-17T19:56:13.492Z,7.97
2018-09-17T19:58:47.246Z,8.10
2018-09-17T20:01:15.716Z,7.70
2018-09-17T20:03:44.223Z,7.97
2018-09-17T20:06:18.031Z,7.67
2018-09-17T20:08:46.562Z,7.07
2018-09-17T20:11:15.175Z,7.87
2018-09-17T20:13:43.620Z,11.63
2018-09-17T20:16:18.234Z,7.00
2018-09-17T20:18:46.878Z,7.97
2018-09-17T20:21:15.486Z,7.40
2018-09-17T20:23:43.933Z,7.13
2018-09-17T20:26:12.346Z,6.83
2018-09-17T20:28:40.765Z,7.47
2018-09-17T20:31:09.232Z,6.87
2018-09-17T20:33:37.587Z,7.07
2018-09-17T20:36:12.794Z,7.60
2018-09-17T20:38:41.362Z,9.47
2018-09-17T20:41:09.837Z,7.20
2018-09-17T20:43:38.503Z,7.50
2018-09-17T20:46:07.053Z,6.97
2018-09-17T20:48:35.613Z,6.50
2018-09-17T20:51:05.069Z,8.63
2018-09-17T20:53:33.550Z,8.53
2018-09-17T20:56:02.129Z,6.77
2018-09-17T20:58:30.577Z,6.60
2018-09-17T21:00:59.132Z,10.50
2018-09-17T21:03:27.574Z,7.33
2018-09-17T21:05:56.068Z,6.13
2018-09-17T21:08:24.612Z,5.90
2018-09-17T21:10:53.026Z,6.63
2018-09-17T21:13:21.520Z,6.73
2018-09-17T21:15:49.891Z,6.90
2018-09-17T21:18:18.501Z,6.50
2018-09-17T21:20:46.886Z,7.80
2018-09-17T21:23:15.533Z,7.03
2018-09-17T21:25:43.947Z,7.60
2018-09-17T21:28:12.477Z,7.20
2018-09-17T21:30:40.946Z,6.40
2018-09-17T21:33:09.443Z,8.50
2018-09-17T21:35:37.832Z,9.00
2018-09-17T21:38:06.377Z,7.40
2018-09-17T21:40:34.911Z,9.07
2018-09-17T21:43:03.670Z,8.00
2018-09-17T21:45:32.000Z,7.53
2018-09-17T21:48:00.510Z,7.00
2018-09-17T21:50:28.972Z,8.23
2018-09-17T21:52:57.647Z,9.40
2018-09-17T21:55:26.197Z,10.83
2018-09-17T21:57:54.684Z,9.50
2018-09-17T22:00:23.051Z,18.33
2018-09-17T22:02:51.841Z,9.90
2018-09-17T22:05:20.433Z,10.40
2018-09-17T22:07:49.126Z,9.57
2018-09-17T22:10:17.738Z,9.60
2018-09-17T22:12:46.522Z,9.27
2018-09-17T22:15:14.936Z,9.40
2018-09-17T22:17:43.497Z,9.90
2018-09-17T22:20:11.938Z,9.97
2018-09-17T22:22:40.345Z,10.23
2018-09-17T22:25:08.818Z,8.97
2018-09-17T22:27:37.270Z,9.37
2018-09-17T22:30:05.961Z,9.30
2018-09-17T22:32:34.455Z,9.33
2018-09-17T22:35:03.091Z,9.20
2018-09-17T22:37:31.715Z,10.27
2018-09-17T22:40:00.245Z,10.30
2018-09-17T22:42:29.174Z,9.07
2018-09-17T22:44:57.694Z,8.57
2018-09-17T22:47:26.172Z,13.67
2018-09-17T22:49:54.684Z,8.10
2018-09-17T22:52:23.091Z,8.67
2018-09-17T22:54:51.691Z,8.27
2018-09-17T22:57:20.096Z,9.13
2018-09-17T22:59:48.525Z,8.90
2018-09-17T23:02:17.049Z,8.67
2018-09-17T23:04:45.570Z,8.53
2018-09-17T23:07:14.005Z,8.20
2018-09-17T23:09:42.431Z,9.20
2018-09-17T23:12:10.983Z,8.00
2018-09-17T23:14:39.366Z,9.00
2018-09-17T23:17:07.869Z,8.60
2018-09-17T23:19:36.375Z,10.20
2018-09-17T23:22:04.823Z,8.20
2018-09-17T23:24:33.262Z,6.97
2018-09-17T23:27:01.764Z,8.13
2018-09-17T23:29:30.106Z,7.40
2018-09-17T23:31:58.541Z,8.20
2018-09-17T23:34:26.986Z,7.57
2018-09-17T23:36:55.413Z,8.10
2018-09-17T23:39:23.843Z,7.97
2018-09-17T23:41:52.411Z,8.53
2018-09-17T23:44:20.842Z,8.90
2018-09-17T23:46:49.322Z,8.13
2018-09-17T23:49:17.762Z,8.30
2018-09-17T23:51:46.240Z,9.30
2018-09-17T23:54:14.590Z,9.53
2018-09-17T23:56:43.651Z,15.10
2018-09-17T23:59:12.103Z,10.10
